sensor_id;sensor_type;location;lat;lon;timestamp;pressure;altitude;pressure_sealevel;temperature;humidity
13734;BME280;43298;52.560;13.508;2023-04-25T00:01:32;99976.13;;;9.20;100.00
13734;BME280;43298;52.560;13.508;2023-04-25T00:04:00;99976.50;;;9.13;100.00
13734;BME280;43298;52.560;13.508;2023-04-25T00:06:26;99972.72;;;9.20;100.00
13734;BME280;43298;52.560;13.508;2023-04-25T00:08:52;99975.59;;;9.14;100.00
13734;BME280;43298;52.560;13.508;2023-04-25T00:11:19;99966.88;;;9.16;100.00
13734;BME280;43298;52.560;13.508;2023-04-25T00:13:45;99967.56;;;9.20;100.00
13734;BME280;43298;52.560;13.508;2023-04-25T00:16:11;99962.47;;;9.18;100.00
13734;BME280;43298;52.560;13.508;2023-04-25T00:18:41;99970.38;;;9.15;100.00
13734;BME280;43298;52.560;13.508;2023-04-25T00:21:07;99969.59;;;9.13;100.00
13734;BME280;43298;52.560;13.508;2023-04-25T00:23:33;99974.91;;;9.10;100.00
13734;BME280;43298;52.560;13.508;2023-04-25T00:26:01;99964.72;;;9.07;100.00
13734;BME280;43298;52.560;13.508;2023-04-25T00:28:27;99967.22;;;9.09;100.00
13734;BME280;43298;52.560;13.508;2023-04-25T00:30:53;99963.84;;;9.08;100.00
13734;BME280;43298;52.560;13.508;2023-04-25T00:33:19;99962.78;;;9.12;100.00
13734;BME280;43298;52.560;13.508;2023-04-25T00:35:45;99961.41;;;9.05;100.00
13734;BME280;43298;52.560;13.508;2023-04-25T00:38:10;99963.34;;;9.00;100.00
13734;BME280;43298;52.560;13.508;2023-04-25T00:40:36;99962.41;;;9.03;100.00
13734;BME280;43298;52.560;13.508;2023-04-25T00:43:02;99953.75;;;9.04;100.00
13734;BME280;43298;52.560;13.508;2023-04-25T00:45:29;99962.28;;;9.04;100.00
13734;BME280;43298;52.560;13.508;2023-04-25T00:47:56;99964.88;;;9.04;100.00
13734;BME280;43298;52.560;13.508;2023-04-25T00:50:23;99966.41;;;9.08;100.00
13734;BME280;43298;52.560;13.508;2023-04-25T00:52:49;99967.16;;;9.10;100.00
13734;BME280;43298;52.560;13.508;2023-04-25T00:55:15;99961.94;;;9.12;100.00
13734;BME280;43298;52.560;13.508;2023-04-25T00:57:42;99973.25;;;9.09;100.00
13734;BME280;43298;52.560;13.508;2023-04-25T01:00:13;99960.94;;;9.14;100.00
13734;BME280;43298;52.560;13.508;2023-04-25T01:02:40;99965.44;;;9.11;100.00
13734;BME280;43298;52.560;13.508;2023-04-25T01:05:08;99953.66;;;9.05;100.00
13734;BME280;43298;52.560;13.508;2023-04-25T01:07:34;99948.66;;;9.02;100.00
13734;BME280;43298;52.560;13.508;2023-04-25T01:10:01;99958.19;;;9.00;100.00
13734;BME280;43298;52.560;13.508;2023-04-25T01:12:27;99948.94;;;8.96;100.00
13734;BME280;43298;52.560;13.508;2023-04-25T01:14:52;99953.34;;;8.94;100.00
13734;BME280;43298;52.560;13.508;2023-04-25T01:17:19;99946.56;;;8.92;100.00
13734;BME280;43298;52.560;13.508;2023-04-25T01:19:45;99950.38;;;9.02;100.00
13734;BME280;43298;52.560;13.508;2023-04-25T01:22:14;99953.09;;;8.99;100.00
13734;BME280;43298;52.560;13.508;2023-04-25T01:24:40;99948.06;;;8.97;100.00
13734;BME280;43298;52.560;13.508;2023-04-25T01:27:07;99954.72;;;9.01;100.00
13734;BME280;43298;52.560;13.508;2023-04-25T01:29:35;99942.72;;;9.00;100.00
13734;BME280;43298;52.560;13.508;2023-04-25T01:32:01;99946.91;;;9.03;100.00
13734;BME280;43298;52.560;13.508;2023-04-25T01:34:27;99943.44;;;9.04;100.00
13734;BME280;43298;52.560;13.508;2023-04-25T01:36:53;99947.59;;;9.06;100.00
13734;BME280;43298;52.560;13.508;2023-04-25T01:39:20;99947.66;;;9.05;100.00
13734;BME280;43298;52.560;13.508;2023-04-25T01:41:46;99947.44;;;9.09;100.00
13734;BME280;43298;52.560;13.508;2023-04-25T01:44:13;99954.28;;;9.10;100.00
13734;BME280;43298;52.560;13.508;2023-04-25T01:46:39;99948.28;;;9.10;100.00
13734;BME280;43298;52.560;13.508;2023-04-25T01:49:05;99956.91;;;9.09;100.00
13734;BME280;43298;52.560;13.508;2023-04-25T01:51:32;99953.34;;;9.11;100.00
13734;BME280;43298;52.560;13.508;2023-04-25T01:53:58;99953.28;;;9.13;100.00
13734;BME280;43298;52.560;13.508;2023-04-25T01:56:25;99949.03;;;9.12;100.00
13734;BME280;43298;52.560;13.508;2023-04-25T01:58:51;99948.44;;;9.07;100.00
13734;BME280;43298;52.560;13.508;2023-04-25T02:01:17;99948.13;;;9.13;100.00
13734;BME280;43298;52.560;13.508;2023-04-25T02:03:43;99952.47;;;9.12;100.00
13734;BME280;43298;52.560;13.508;2023-04-25T02:06:09;99955.94;;;9.11;100.00
13734;BME280;43298;52.560;13.508;2023-04-25T02:08:35;99958.44;;;9.13;100.00
13734;BME280;43298;52.560;13.508;2023-04-25T02:11:02;99952.41;;;9.14;100.00
13734;BME280;43298;52.560;13.508;2023-04-25T02:13:28;99956.69;;;9.13;100.00
13734;BME280;43298;52.560;13.508;2023-04-25T02:15:54;99957.47;;;9.15;100.00
13734;BME280;43298;52.560;13.508;2023-04-25T02:18:20;99949.88;;;9.12;100.00
13734;BME280;43298;52.560;13.508;2023-04-25T02:20:47;99960.13;;;9.14;100.00
13734;BME280;43298;52.560;13.508;2023-04-25T02:23:13;99959.34;;;9.12;100.00
13734;BME280;43298;52.560;13.508;2023-04-25T02:25:41;99961.94;;;9.12;100.00
13734;BME280;43298;52.560;13.508;2023-04-25T02:28:07;99955.78;;;9.14;100.00
13734;BME280;43298;52.560;13.508;2023-04-25T02:30:33;99955.94;;;9.11;100.00
13734;BME280;43298;52.560;13.508;2023-04-25T02:32:59;99957.91;;;9.06;100.00
13734;BME280;43298;52.560;13.508;2023-04-25T02:35:25;99957.75;;;9.09;100.00
13734;BME280;43298;52.560;13.508;2023-04-25T02:37:50;99956.09;;;9.08;100.00
13734;BME280;43298;52.560;13.508;2023-04-25T02:40:16;99954.56;;;9.04;100.00
13734;BME280;43298;52.560;13.508;2023-04-25T02:42:42;99958.81;;;9.05;100.00
13734;BME280;43298;52.560;13.508;2023-04-25T02:45:08;99955.41;;;9.05;100.00
13734;BME280;43298;52.560;13.508;2023-04-25T02:47:34;99952.06;;;9.03;100.00
13734;BME280;43298;52.560;13.508;2023-04-25T02:50:00;99961.47;;;9.04;100.00
13734;BME280;43298;52.560;13.508;2023-04-25T02:52:26;99958.19;;;9.00;100.00
13734;BME280;43298;52.560;13.508;2023-04-25T02:54:52;99951.22;;;9.02;100.00
13734;BME280;43298;52.560;13.508;2023-04-25T02:57:18;99953.75;;;9.04;100.00
13734;BME280;43298;52.560;13.508;2023-04-25T02:59:43;99952.97;;;9.02;100.00
13734;BME280;43298;52.560;13.508;2023-04-25T03:02:09;99955.53;;;9.02;100.00
13734;BME280;43298;52.560;13.508;2023-04-25T03:04:35;99956.47;;;9.01;100.00
13734;BME280;43298;52.560;13.508;2023-04-25T03:07:01;99952.06;;;9.03;100.00
13734;BME280;43298;52.560;13.508;2023-04-25T03:09:27;99957.22;;;9.03;100.00
13734;BME280;43298;52.560;13.508;2023-04-25T03:11:53;99954.88;;;8.98;100.00
13734;BME280;43298;52.560;13.508;2023-04-25T03:14:18;99950.47;;;9.00;100.00
13734;BME280;43298;52.560;13.508;2023-04-25T03:16:44;99959.88;;;9.01;100.00
13734;BME280;43298;52.560;13.508;2023-04-25T03:19:10;99959.09;;;8.99;100.00
13734;BME280;43298;52.560;13.508;2023-04-25T03:21:37;99953.81;;;9.02;100.00
13734;BME280;43298;52.560;13.508;2023-04-25T03:24:05;99949.78;;;8.97;100.00
13734;BME280;43298;52.560;13.508;2023-04-25T03:26:31;99953.22;;;8.97;100.00
13734;BME280;43298;52.560;13.508;2023-04-25T03:28:57;99951.50;;;8.96;100.00
13734;BME280;43298;52.560;13.508;2023-04-25T03:31:23;99956.53;;;8.99;100.00
13734;BME280;43298;52.560;13.508;2023-04-25T03:33:48;99951.50;;;8.96;100.00
13734;BME280;43298;52.560;13.508;2023-04-25T03:36:14;99955.84;;;8.96;100.00
13734;BME280;43298;52.560;13.508;2023-04-25T03:38:40;99952.44;;;8.95;100.00
13734;BME280;43298;52.560;13.508;2023-04-25T03:41:09;99959.25;;;8.96;100.00
13734;BME280;43298;52.560;13.508;2023-04-25T03:43:35;99957.78;;;8.91;100.00
13734;BME280;43298;52.560;13.508;2023-04-25T03:46:01;99966.38;;;8.91;100.00
13734;BME280;43298;52.560;13.508;2023-04-25T03:48:27;99967.13;;;8.93;100.00
13734;BME280;43298;52.560;13.508;2023-04-25T03:50:54;99961.16;;;8.93;100.00
13734;BME280;43298;52.560;13.508;2023-04-25T03:53:19;99970.47;;;8.95;100.00
13734;BME280;43298;52.560;13.508;2023-04-25T03:55:45;99967.75;;;8.98;100.00
13734;BME280;43298;52.560;13.508;2023-04-25T03:58:11;99971.41;;;8.94;100.00
13734;BME280;43298;52.560;13.508;2023-04-25T04:00:37;99967.28;;;8.90;100.00
13734;BME280;43298;52.560;13.508;2023-04-25T04:03:03;99971.75;;;8.87;100.00
13734;BME280;43298;52.560;13.508;2023-04-25T04:05:29;99977.75;;;8.87;100.00
13734;BME280;43298;52.560;13.508;2023-04-25T04:07:55;99972.28;;;8.93;100.00
13734;BME280;43298;52.560;13.508;2023-04-25T04:10:21;99980.78;;;8.95;100.00
13734;BME280;43298;52.560;13.508;2023-04-25T04:12:47;99975.63;;;8.95;100.00
13734;BME280;43298;52.560;13.508;2023-04-25T04:15:13;99985.81;;;8.98;100.00
13734;BME280;43298;52.560;13.508;2023-04-25T04:17:39;99987.91;;;8.90;100.00
13734;BME280;43298;52.560;13.508;2023-04-25T04:20:05;99985.41;;;8.89;100.00
13734;BME280;43298;52.560;13.508;2023-04-25T04:22:32;99988.06;;;8.87;100.00
13734;BME280;43298;52.560;13.508;2023-04-25T04:24:58;99991.25;;;8.92;100.00
13734;BME280;43298;52.560;13.508;2023-04-25T04:27:24;99991.09;;;8.95;100.00
13734;BME280;43298;52.560;13.508;2023-04-25T04:29:50;99994.34;;;8.99;100.00
13734;BME280;43298;52.560;13.508;2023-04-25T04:32:17;99997.03;;;8.97;100.00
13734;BME280;43298;52.560;13.508;2023-04-25T04:34:43;99995.41;;;8.95;100.00
13734;BME280;43298;52.560;13.508;2023-04-25T04:37:10;99998.06;;;8.93;100.00
13734;BME280;43298;52.560;13.508;2023-04-25T04:39:38;99995.34;;;8.96;100.00
13734;BME280;43298;52.560;13.508;2023-04-25T04:42:04;99997.09;;;8.96;100.00
13734;BME280;43298;52.560;13.508;2023-04-25T04:44:30;100000.38;;;8.99;100.00
13734;BME280;43298;52.560;13.508;2023-04-25T04:47:00;99995.41;;;8.95;100.00
13734;BME280;43298;52.560;13.508;2023-04-25T04:49:25;99993.69;;;8.95;100.00
13734;BME280;43298;52.560;13.508;2023-04-25T04:51:51;100009.16;;;8.95;100.00
13734;BME280;43298;52.560;13.508;2023-04-25T04:54:17;100006.31;;;9.01;100.00
13734;BME280;43298;52.560;13.508;2023-04-25T04:56:43;100008.88;;;9.01;100.00
13734;BME280;43298;52.560;13.508;2023-04-25T04:59:09;100006.31;;;9.01;100.00
13734;BME280;43298;52.560;13.508;2023-04-25T05:01:37;100009.56;;;9.05;100.00
13734;BME280;43298;52.560;13.508;2023-04-25T05:04:03;100008.56;;;9.07;100.00
13734;BME280;43298;52.560;13.508;2023-04-25T05:06:30;100000.81;;;9.07;100.00
13734;BME280;43298;52.560;13.508;2023-04-25T05:08:57;100009.34;;;9.09;100.00
13734;BME280;43298;52.560;13.508;2023-04-25T05:11:24;100000.81;;;9.07;100.00
13734;BME280;43298;52.560;13.508;2023-04-25T05:13:52;100002.53;;;9.08;100.00
13734;BME280;43298;52.560;13.508;2023-04-25T05:16:18;100007.38;;;9.14;100.00
13734;BME280;43298;52.560;13.508;2023-04-25T05:18:44;100008.50;;;9.09;100.00
13734;BME280;43298;52.560;13.508;2023-04-25T05:21:10;100010.25;;;9.08;100.00
13734;BME280;43298;52.560;13.508;2023-04-25T05:23:36;100016.94;;;9.12;100.00
13734;BME280;43298;52.560;13.508;2023-04-25T05:26:01;100011.84;;;9.11;100.00
13734;BME280;43298;52.560;13.508;2023-04-25T05:28:27;100016.81;;;9.15;100.00
13734;BME280;43298;52.560;13.508;2023-04-25T05:30:53;100013.91;;;9.21;100.00
13734;BME280;43298;52.560;13.508;2023-04-25T05:33:19;100015.75;;;9.19;100.00
13734;BME280;43298;52.560;13.508;2023-04-25T05:35:45;100022.63;;;9.19;100.00
13734;BME280;43298;52.560;13.508;2023-04-25T05:38:11;100016.81;;;9.15;100.00
13734;BME280;43298;52.560;13.508;2023-04-25T05:40:37;100017.13;;;9.27;100.00
13734;BME280;43298;52.560;13.508;2023-04-25T05:43:03;100019.63;;;9.28;100.00
13734;BME280;43298;52.560;13.508;2023-04-25T05:45:29;100024.22;;;9.21;100.00
13734;BME280;43298;52.560;13.508;2023-04-25T05:47:55;100024.53;;;9.15;100.00
13734;BME280;43298;52.560;13.508;2023-04-25T05:50:21;100027.59;;;9.23;100.00
13734;BME280;43298;52.560;13.508;2023-04-25T05:52:46;100031.81;;;9.24;100.00
13734;BME280;43298;52.560;13.508;2023-04-25T05:55:12;100032.75;;;9.23;100.00
13734;BME280;43298;52.560;13.508;2023-04-25T05:57:39;100034.63;;;9.20;100.00
13734;BME280;43298;52.560;13.508;2023-04-25T06:00:08;100035.31;;;9.23;100.00
13734;BME280;43298;52.560;13.508;2023-04-25T06:02:35;100038.13;;;9.19;100.00
13734;BME280;43298;52.560;13.508;2023-04-25T06:05:01;100035.19;;;9.27;100.00
13734;BME280;43298;52.560;13.508;2023-04-25T06:07:29;100042.06;;;9.26;100.00
13734;BME280;43298;52.560;13.508;2023-04-25T06:09:58;100041.16;;;9.27;100.00
13734;BME280;43298;52.560;13.508;2023-04-25T06:12:25;100038.44;;;9.30;100.00
13734;BME280;43298;52.560;13.508;2023-04-25T06:14:51;100042.91;;;9.27;100.00
13734;BME280;43298;52.560;13.508;2023-04-25T06:17:17;100046.69;;;9.19;100.00
13734;BME280;43298;52.560;13.508;2023-04-25T06:19:42;100043.06;;;9.23;100.00
13734;BME280;43298;52.560;13.508;2023-04-25T06:22:08;100053.53;;;9.20;100.00
13734;BME280;43298;52.560;13.508;2023-04-25T06:24:34;100052.53;;;9.23;100.00
13734;BME280;43298;52.560;13.508;2023-04-25T06:27:00;100051.00;;;9.38;100.00
13734;BME280;43298;52.560;13.508;2023-04-25T06:29:26;100049.66;;;9.48;100.00
13734;BME280;43298;52.560;13.508;2023-04-25T06:31:52;100044.38;;;9.49;100.00
13734;BME280;43298;52.560;13.508;2023-04-25T06:34:18;100042.66;;;9.50;100.00
13734;BME280;43298;52.560;13.508;2023-04-25T06:36:44;100047.41;;;9.40;100.00
13734;BME280;43298;52.560;13.508;2023-04-25T06:39:10;100055.22;;;9.39;100.00
13734;BME280;43298;52.560;13.508;2023-04-25T06:41:36;100056.16;;;9.38;100.00
13734;BME280;43298;52.560;13.508;2023-04-25T06:44:02;100049.81;;;9.26;100.00
13734;BME280;43298;52.560;13.508;2023-04-25T06:46:28;100057.69;;;9.23;100.00
13734;BME280;43298;52.560;13.508;2023-04-25T06:48:54;100056.09;;;9.20;100.00
13734;BME280;43298;52.560;13.508;2023-04-25T06:51:20;100055.44;;;9.34;100.00
13734;BME280;43298;52.560;13.508;2023-04-25T06:53:45;100056.28;;;9.35;100.00
13734;BME280;43298;52.560;13.508;2023-04-25T06:56:11;100054.31;;;9.40;100.00
13734;BME280;43298;52.560;13.508;2023-04-25T06:58:37;100053.84;;;9.32;100.00
13734;BME280;43298;52.560;13.508;2023-04-25T07:01:03;100051.72;;;9.40;100.00
13734;BME280;43298;52.560;13.508;2023-04-25T07:03:29;100049.47;;;9.34;100.00
13734;BME280;43298;52.560;13.508;2023-04-25T07:05:55;100051.28;;;9.32;100.00
13734;BME280;43298;52.560;13.508;2023-04-25T07:08:21;100060.19;;;9.24;100.00
13734;BME280;43298;52.560;13.508;2023-04-25T07:10:47;100050.72;;;9.25;100.00
13734;BME280;43298;52.560;13.508;2023-04-25T07:13:12;100058.41;;;9.27;100.00
13734;BME280;43298;52.560;13.508;2023-04-25T07:15:38;100063.50;;;9.28;100.00
13734;BME280;43298;52.560;13.508;2023-04-25T07:18:04;100071.16;;;9.30;100.00
13734;BME280;43298;52.560;13.508;2023-04-25T07:20:30;100076.59;;;9.23;100.00
13734;BME280;43298;52.560;13.508;2023-04-25T07:22:57;100079.72;;;9.11;100.00
13734;BME280;43298;52.560;13.508;2023-04-25T07:25:22;100079.91;;;9.08;100.00
13734;BME280;43298;52.560;13.508;2023-04-25T07:27:48;100075.63;;;9.07;100.00
13734;BME280;43298;52.560;13.508;2023-04-25T07:30:14;100079.97;;;9.07;100.00
13734;BME280;43298;52.560;13.508;2023-04-25T07:32:40;100091.66;;;9.14;100.00
13734;BME280;43298;52.560;13.508;2023-04-25T07:35:06;100087.97;;;9.19;100.00
13734;BME280;43298;52.560;13.508;2023-04-25T07:37:34;100092.41;;;9.16;100.00
13734;BME280;43298;52.560;13.508;2023-04-25T07:40:03;100093.94;;;9.20;100.00
13734;BME280;43298;52.560;13.508;2023-04-25T07:42:32;100092.19;;;9.39;100.00
13734;BME280;43298;52.560;13.508;2023-04-25T07:44:57;100094.25;;;9.50;100.00
13734;BME280;43298;52.560;13.508;2023-04-25T07:47:23;100097.56;;;9.53;100.00
13734;BME280;43298;52.560;13.508;2023-04-25T07:49:49;100092.75;;;9.46;100.00
13734;BME280;43298;52.560;13.508;2023-04-25T07:52:15;100102.44;;;9.41;100.00
13734;BME280;43298;52.560;13.508;2023-04-25T07:54:41;100099.81;;;9.42;100.00
13734;BME280;43298;52.560;13.508;2023-04-25T07:57:07;100105.09;;;9.39;100.00
13734;BME280;43298;52.560;13.508;2023-04-25T07:59:33;100109.56;;;9.36;100.00
13734;BME280;43298;52.560;13.508;2023-04-25T08:01:59;100103.91;;;9.46;100.00
13734;BME280;43298;52.560;13.508;2023-04-25T08:04:25;100117.22;;;9.56;100.00
13734;BME280;43298;52.560;13.508;2023-04-25T08:06:51;100125.22;;;9.68;100.00
13734;BME280;43298;52.560;13.508;2023-04-25T08:09:19;100125.53;;;9.79;100.00
13734;BME280;43298;52.560;13.508;2023-04-25T08:11:45;100131.22;;;9.86;100.00
13734;BME280;43298;52.560;13.508;2023-04-25T08:14:12;100132.91;;;9.87;100.00
13734;BME280;43298;52.560;13.508;2023-04-25T08:16:38;100129.44;;;10.05;100.00
13734;BME280;43298;52.560;13.508;2023-04-25T08:19:04;100135.09;;;10.30;100.00
13734;BME280;43298;52.560;13.508;2023-04-25T08:21:30;100144.63;;;10.62;100.00
13734;BME280;43298;52.560;13.508;2023-04-25T08:23:57;100139.94;;;10.85;100.00
13734;BME280;43298;52.560;13.508;2023-04-25T08:26:24;100141.13;;;10.63;100.00
13734;BME280;43298;52.560;13.508;2023-04-25T08:28:51;100145.94;;;10.53;100.00
13734;BME280;43298;52.560;13.508;2023-04-25T08:31:17;100150.28;;;10.19;100.00
13734;BME280;43298;52.560;13.508;2023-04-25T08:33:43;100152.47;;;10.26;100.00
13734;BME280;43298;52.560;13.508;2023-04-25T08:36:10;100159.16;;;10.30;100.00
13734;BME280;43298;52.560;13.508;2023-04-25T08:38:36;100160.75;;;10.50;100.00
13734;BME280;43298;52.560;13.508;2023-04-25T08:41:02;100160.75;;;10.33;100.00
13734;BME280;43298;52.560;13.508;2023-04-25T08:43:29;100170.56;;;10.43;100.00
13734;BME280;43298;52.560;13.508;2023-04-25T08:45:59;100168.28;;;10.20;100.00
13734;BME280;43298;52.560;13.508;2023-04-25T08:48:27;100172.78;;;10.17;100.00
13734;BME280;43298;52.560;13.508;2023-04-25T08:50:56;100173.94;;;10.28;100.00
13734;BME280;43298;52.560;13.508;2023-04-25T08:53:29;100173.69;;;10.50;100.00
13734;BME280;43298;52.560;13.508;2023-04-25T08:55:59;100169.59;;;10.95;100.00
13734;BME280;43298;52.560;13.508;2023-04-25T08:58:28;100176.13;;;11.02;100.00
13734;BME280;43298;52.560;13.508;2023-04-25T09:00:54;100164.97;;;11.17;100.00
13734;BME280;43298;52.560;13.508;2023-04-25T09:03:20;100174.94;;;12.46;100.00
13734;BME280;43298;52.560;13.508;2023-04-25T09:05:45;100170.84;;;12.86;100.00
13734;BME280;43298;52.560;13.508;2023-04-25T09:08:11;100171.53;;;12.46;100.00
13734;BME280;43298;52.560;13.508;2023-04-25T09:10:38;100161.66;;;11.77;100.00
13734;BME280;43298;52.560;13.508;2023-04-25T09:13:17;100166.69;;;11.65;98.74
13734;BME280;43298;52.560;13.508;2023-04-25T09:15:52;100172.69;;;11.81;97.81
13734;BME280;43298;52.560;13.508;2023-04-25T09:20:44;100178.38;;;13.46;87.49
13734;BME280;43298;52.560;13.508;2023-04-25T09:23:10;100181.16;;;13.43;88.37
13734;BME280;43298;52.560;13.508;2023-04-25T09:25:37;100190.56;;;12.88;87.58
13734;BME280;43298;52.560;13.508;2023-04-25T09:28:06;100186.88;;;12.05;88.83
13734;BME280;43298;52.560;13.508;2023-04-25T09:30:36;100198.13;;;12.63;89.63
13734;BME280;43298;52.560;13.508;2023-04-25T09:33:07;100184.56;;;12.14;89.37
13734;BME280;43298;52.560;13.508;2023-04-25T09:35:44;100190.94;;;12.09;89.49
13734;BME280;43298;52.560;13.508;2023-04-25T09:38:15;100196.22;;;11.92;87.68
13734;BME280;43298;52.560;13.508;2023-04-25T09:40:46;100199.13;;;12.17;88.51
13734;BME280;43298;52.560;13.508;2023-04-25T09:43:24;100199.38;;;12.72;86.51
13734;BME280;43298;52.560;13.508;2023-04-25T09:45:54;100199.66;;;12.95;84.67
13734;BME280;43298;52.560;13.508;2023-04-25T09:48:24;100197.63;;;12.86;84.50
13734;BME280;43298;52.560;13.508;2023-04-25T09:51:12;100196.44;;;12.48;85.68
13734;BME280;43298;52.560;13.508;2023-04-25T09:53:43;100192.16;;;12.33;83.87
13734;BME280;43298;52.560;13.508;2023-04-25T09:56:12;100195.84;;;12.29;80.68
13734;BME280;43298;52.560;13.508;2023-04-25T09:58:40;100203.34;;;12.04;79.39
13734;BME280;43298;52.560;13.508;2023-04-25T10:01:10;100196.47;;;11.87;79.38
13734;BME280;43298;52.560;13.508;2023-04-25T10:03:38;100198.41;;;11.84;78.79
13734;BME280;43298;52.560;13.508;2023-04-25T10:06:12;100201.88;;;12.14;78.79
13734;BME280;43298;52.560;13.508;2023-04-25T10:08:38;100195.97;;;11.96;77.17
13734;BME280;43298;52.560;13.508;2023-04-25T10:11:08;100205.66;;;13.11;74.95
13734;BME280;43298;52.560;13.508;2023-04-25T10:13:35;100200.81;;;12.32;72.34
13734;BME280;43298;52.560;13.508;2023-04-25T10:16:05;100208.75;;;12.15;72.64
13734;BME280;43298;52.560;13.508;2023-04-25T10:18:32;100200.81;;;12.18;72.88
13734;BME280;43298;52.560;13.508;2023-04-25T10:21:01;100208.00;;;11.82;73.33
13734;BME280;43298;52.560;13.508;2023-04-25T10:23:30;100199.75;;;11.91;74.02
13734;BME280;43298;52.560;13.508;2023-04-25T10:25:57;100212.06;;;12.17;74.50
13734;BME280;43298;52.560;13.508;2023-04-25T10:28:24;100208.31;;;12.07;74.38
13734;BME280;43298;52.560;13.508;2023-04-25T10:31:07;100218.13;;;12.02;73.70
13734;BME280;43298;52.560;13.508;2023-04-25T10:33:35;100213.19;;;11.82;74.42
13734;BME280;43298;52.560;13.508;2023-04-25T10:36:18;100214.44;;;11.90;75.82
13734;BME280;43298;52.560;13.508;2023-04-25T10:38:45;100219.38;;;11.95;75.93
13734;BME280;43298;52.560;13.508;2023-04-25T10:41:13;100215.13;;;12.09;76.34
13734;BME280;43298;52.560;13.508;2023-04-25T10:43:43;100215.53;;;12.02;78.11
13734;BME280;43298;52.560;13.508;2023-04-25T10:46:29;100216.69;;;11.34;75.75
13734;BME280;43298;52.560;13.508;2023-04-25T10:49:01;100226.53;;;11.59;76.99
13734;BME280;43298;52.560;13.508;2023-04-25T10:51:32;100230.00;;;11.75;76.29
13734;BME280;43298;52.560;13.508;2023-04-25T10:59:10;100225.66;;;11.91;73.30
13734;BME280;43298;52.560;13.508;2023-04-25T11:01:46;100229.66;;;11.81;73.49
13734;BME280;43298;52.560;13.508;2023-04-25T11:04:31;100227.75;;;11.84;73.07
13734;BME280;43298;52.560;13.508;2023-04-25T11:07:10;100231.84;;;11.88;71.73
13734;BME280;43298;52.560;13.508;2023-04-25T11:09:40;100237.25;;;12.45;71.73
13734;BME280;43298;52.560;13.508;2023-04-25T11:12:08;100238.38;;;12.41;68.69
13734;BME280;43298;52.560;13.508;2023-04-25T11:14:35;100244.19;;;11.99;68.96
13734;BME280;43298;52.560;13.508;2023-04-25T11:17:01;100246.06;;;11.66;69.51
13734;BME280;43298;52.560;13.508;2023-04-25T11:19:31;100255.19;;;11.56;71.42
13734;BME280;43298;52.560;13.508;2023-04-25T11:21:58;100260.50;;;11.05;73.10
13734;BME280;43298;52.560;13.508;2023-04-25T11:24:33;100260.38;;;10.74;74.75
13734;BME280;43298;52.560;13.508;2023-04-25T11:27:03;100272.06;;;10.47;74.94
13734;BME280;43298;52.560;13.508;2023-04-25T11:29:31;100274.81;;;10.44;76.78
13734;BME280;43298;52.560;13.508;2023-04-25T11:31:57;100281.88;;;10.57;76.95
13734;BME280;43298;52.560;13.508;2023-04-25T11:34:24;100294.41;;;10.65;77.10
13734;BME280;43298;52.560;13.508;2023-04-25T11:36:51;100285.63;;;10.69;76.44
13734;BME280;43298;52.560;13.508;2023-04-25T11:39:19;100282.66;;;10.76;74.39
13734;BME280;43298;52.560;13.508;2023-04-25T11:41:46;100288.75;;;10.92;72.48
13734;BME280;43298;52.560;13.508;2023-04-25T11:44:16;100286.44;;;11.20;72.66
13734;BME280;43298;52.560;13.508;2023-04-25T11:46:43;100285.91;;;11.46;71.21
13734;BME280;43298;52.560;13.508;2023-04-25T11:49:09;100286.63;;;11.65;70.66
13734;BME280;43298;52.560;13.508;2023-04-25T11:51:42;100281.47;;;11.81;69.85
13734;BME280;43298;52.560;13.508;2023-04-25T11:54:09;100285.72;;;11.82;69.08
13734;BME280;43298;52.560;13.508;2023-04-25T11:56:34;100283.66;;;11.88;68.28
13734;BME280;43298;52.560;13.508;2023-04-25T11:59:04;100291.34;;;12.05;68.65
13734;BME280;43298;52.560;13.508;2023-04-25T12:01:37;100302.56;;;12.06;69.18
13734;BME280;43298;52.560;13.508;2023-04-25T12:04:24;100291.59;;;11.53;68.18
13734;BME280;43298;52.560;13.508;2023-04-25T12:06:53;100301.38;;;11.48;68.66
13734;BME280;43298;52.560;13.508;2023-04-25T12:09:27;100294.34;;;11.50;69.08
13734;BME280;43298;52.560;13.508;2023-04-25T12:11:55;100307.06;;;11.87;71.50
13734;BME280;43298;52.560;13.508;2023-04-25T12:14:25;100302.19;;;11.81;70.10
13734;BME280;43298;52.560;13.508;2023-04-25T12:16:54;100312.50;;;11.98;70.34
13734;BME280;43298;52.560;13.508;2023-04-25T12:19:21;100301.19;;;11.83;70.39
13734;BME280;43298;52.560;13.508;2023-04-25T12:21:48;100313.00;;;11.56;69.44
13734;BME280;43298;52.560;13.508;2023-04-25T12:24:25;100310.09;;;11.30;70.61
13734;BME280;43298;52.560;13.508;2023-04-25T12:27:04;100307.28;;;11.17;70.85
13734;BME280;43298;52.560;13.508;2023-04-25T12:29:32;100311.41;;;11.21;72.07
13734;BME280;43298;52.560;13.508;2023-04-25T12:31:59;100315.72;;;11.21;69.19
13734;BME280;43298;52.560;13.508;2023-04-25T12:34:25;100311.91;;;11.28;68.24
13734;BME280;43298;52.560;13.508;2023-04-25T12:36:52;100319.31;;;11.18;67.02
13734;BME280;43298;52.560;13.508;2023-04-25T12:39:25;100311.44;;;11.37;67.67
13734;BME280;43298;52.560;13.508;2023-04-25T12:41:51;100313.06;;;11.87;67.60
13734;BME280;43298;52.560;13.508;2023-04-25T12:44:21;100319.94;;;11.56;65.79
13734;BME280;43298;52.560;13.508;2023-04-25T12:46:47;100311.41;;;11.54;67.09
13734;BME280;43298;52.560;13.508;2023-04-25T12:49:13;100314.16;;;11.51;67.31
13734;BME280;43298;52.560;13.508;2023-04-25T12:51:40;100307.94;;;11.38;69.24